Informes METAR cercanos


LEVC - Manises, Valencia, ESPAÑA
Distance from station: NNE 72km
Actualización: 17/01/2018 12:00
Despejado
Despejado
 Viento del ONO
Viento: ONO 15 km/h
Temperatura: 19°C
Rocío: 3°C
Humedad: 35%
Barómetro: 1022 hPa
Resumen: Despejado
Visibility: Mas de 10 km
2018/01/17 11:00 LEVC 171100Z 29008KT 270V330 CAVOK 19/03 Q1022 NOSIG
LEAL - El Altet, Alicante, ESPAÑA
Distance from station: S 70km
Actualización: 17/01/2018 12:00
Despejado
Despejado
 Viento del ONO
Viento: ONO 19 km/h
Temperatura: 19°C
Rocío: 6°C
Humedad: 43%
Barómetro: 1022 hPa
Resumen: Despejado
Visibility: Mas de 10 km
2018/01/17 11:00 LEAL 171100Z 29010KT 260V320 CAVOK 19/06 Q1022 NOSIG
 
LELC - San Javier, Murcia, ESPAÑA
Distance from station: SSO 188km
Actualización: 17/01/2018 12:00
Despejado
Despejado
 Viento del ONO
Viento: ONO 30 km/h
Temperatura: 18°C
Rocío: 7°C
Humedad: 49%
Barómetro: 1023 hPa
Resumen: Despejado
Visibility: Mas de 10 km
2018/01/17 11:00 LELC 171100Z 29016KT CAVOK 18/07 Q1023 NOSIG
LEAB - Los Llanos, Albacete, ESPAÑA
Distance from station: O 143km
Actualización: 17/01/2018 12:00
Parcialmente nuboso
Parcialmente nuboso
 Viento del NNO
Viento: NNO 15 km/h
Temperatura: 7°C
Sensacion frio: 4°C
Rocío: 6°C
Humedad: 93%
Barómetro: 1026 hPa
Clouds: Parcialmente nuboso
Visibility: 10 km
Cloud details: Parcialmente nuboso 122 m
2018/01/17 11:00 LEAB 171100Z 34008KT 9999 SCT004 07/06 Q1026 NOSIG